sensor_id;sensor_type;location;lat;lon;timestamp;P1;durP1;ratioP1;P2;durP2;ratioP2
2211;SDS011;48849;48.758;9.158;2023-06-22T00:01:24;9.73;;;8.40;;
2211;SDS011;48849;48.758;9.158;2023-06-22T00:03:55;10.10;;;8.20;;
2211;SDS011;48849;48.758;9.158;2023-06-22T00:06:26;8.33;;;7.53;;
2211;SDS011;48849;48.758;9.158;2023-06-22T00:08:53;9.73;;;8.03;;
2211;SDS011;48849;48.758;9.158;2023-06-22T00:11:32;9.17;;;8.37;;
2211;SDS011;48849;48.758;9.158;2023-06-22T00:14:22;10.03;;;9.00;;
2211;SDS011;48849;48.758;9.158;2023-06-22T00:16:56;9.10;;;8.20;;
2211;SDS011;48849;48.758;9.158;2023-06-22T00:19:43;10.57;;;9.50;;
2211;SDS011;48849;48.758;9.158;2023-06-22T00:22:23;9.40;;;8.50;;
2211;SDS011;48849;48.758;9.158;2023-06-22T00:24:53;9.73;;;8.73;;
2211;SDS011;48849;48.758;9.158;2023-06-22T00:27:28;12.17;;;9.00;;
2211;SDS011;48849;48.758;9.158;2023-06-22T00:29:58;9.70;;;8.80;;
2211;SDS011;48849;48.758;9.158;2023-06-22T00:32:30;11.40;;;8.83;;
2211;SDS011;48849;48.758;9.158;2023-06-22T00:35:12;14.40;;;9.20;;
2211;SDS011;48849;48.758;9.158;2023-06-22T00:37:46;8.60;;;7.80;;
2211;SDS011;48849;48.758;9.158;2023-06-22T00:40:17;9.43;;;8.33;;
2211;SDS011;48849;48.758;9.158;2023-06-22T00:42:56;9.93;;;8.60;;
2211;SDS011;48849;48.758;9.158;2023-06-22T00:45:29;10.53;;;9.57;;
2211;SDS011;48849;48.758;9.158;2023-06-22T00:48:04;10.20;;;9.20;;
2211;SDS011;48849;48.758;9.158;2023-06-22T00:50:45;9.03;;;8.20;;
2211;SDS011;48849;48.758;9.158;2023-06-22T00:53:18;11.20;;;8.80;;
2211;SDS011;48849;48.758;9.158;2023-06-22T00:55:54;12.90;;;8.90;;
2211;SDS011;48849;48.758;9.158;2023-06-22T00:58:31;10.40;;;8.90;;
2211;SDS011;48849;48.758;9.158;2023-06-22T01:01:12;9.27;;;8.10;;
2211;SDS011;48849;48.758;9.158;2023-06-22T01:03:43;10.13;;;8.73;;
2211;SDS011;48849;48.758;9.158;2023-06-22T01:06:14;9.23;;;8.43;;
2211;SDS011;48849;48.758;9.158;2023-06-22T01:08:46;9.83;;;8.83;;
2211;SDS011;48849;48.758;9.158;2023-06-22T01:11:32;9.47;;;8.47;;
2211;SDS011;48849;48.758;9.158;2023-06-22T01:14:15;10.80;;;8.90;;
2211;SDS011;48849;48.758;9.158;2023-06-22T01:16:53;9.83;;;7.87;;
2211;SDS011;48849;48.758;9.158;2023-06-22T01:19:35;7.90;;;7.10;;
2211;SDS011;48849;48.758;9.158;2023-06-22T01:22:11;10.30;;;8.30;;
2211;SDS011;48849;48.758;9.158;2023-06-22T01:24:48;10.13;;;7.90;;
2211;SDS011;48849;48.758;9.158;2023-06-22T01:27:36;10.70;;;8.07;;
2211;SDS011;48849;48.758;9.158;2023-06-22T01:30:25;8.70;;;7.57;;
2211;SDS011;48849;48.758;9.158;2023-06-22T01:32:55;9.77;;;8.80;;
2211;SDS011;48849;48.758;9.158;2023-06-22T01:35:29;10.40;;;9.03;;
2211;SDS011;48849;48.758;9.158;2023-06-22T01:37:58;9.13;;;8.20;;
2211;SDS011;48849;48.758;9.158;2023-06-22T01:40:44;9.93;;;8.93;;
2211;SDS011;48849;48.758;9.158;2023-06-22T01:43:14;8.57;;;7.77;;
2211;SDS011;48849;48.758;9.158;2023-06-22T01:45:47;8.90;;;8.07;;
2211;SDS011;48849;48.758;9.158;2023-06-22T01:48:44;8.30;;;7.50;;
2211;SDS011;48849;48.758;9.158;2023-06-22T01:51:29;8.47;;;7.77;;
2211;SDS011;48849;48.758;9.158;2023-06-22T01:54:03;8.83;;;7.70;;
2211;SDS011;48849;48.758;9.158;2023-06-22T01:56:56;7.50;;;6.70;;
2211;SDS011;48849;48.758;9.158;2023-06-22T01:59:39;10.83;;;8.30;;
2211;SDS011;48849;48.758;9.158;2023-06-22T02:02:26;10.77;;;8.67;;
2211;SDS011;48849;48.758;9.158;2023-06-22T02:05:07;9.47;;;8.53;;
2211;SDS011;48849;48.758;9.158;2023-06-22T02:07:39;8.57;;;7.83;;
2211;SDS011;48849;48.758;9.158;2023-06-22T02:10:24;8.60;;;7.90;;
2211;SDS011;48849;48.758;9.158;2023-06-22T02:13:06;8.60;;;7.70;;
2211;SDS011;48849;48.758;9.158;2023-06-22T02:15:39;12.37;;;7.93;;
2211;SDS011;48849;48.758;9.158;2023-06-22T02:18:15;8.23;;;7.40;;
2211;SDS011;48849;48.758;9.158;2023-06-22T02:21:03;9.03;;;8.20;;
2211;SDS011;48849;48.758;9.158;2023-06-22T02:23:40;8.73;;;7.83;;
2211;SDS011;48849;48.758;9.158;2023-06-22T02:26:12;8.70;;;7.23;;
2211;SDS011;48849;48.758;9.158;2023-06-22T02:28:49;8.27;;;7.47;;
2211;SDS011;48849;48.758;9.158;2023-06-22T02:31:20;9.60;;;7.70;;
2211;SDS011;48849;48.758;9.158;2023-06-22T02:34:03;9.07;;;8.17;;
2211;SDS011;48849;48.758;9.158;2023-06-22T02:36:30;8.50;;;7.80;;
2211;SDS011;48849;48.758;9.158;2023-06-22T02:38:58;11.40;;;7.40;;
2211;SDS011;48849;48.758;9.158;2023-06-22T02:41:26;9.43;;;8.53;;
2211;SDS011;48849;48.758;9.158;2023-06-22T02:43:59;9.73;;;8.40;;
2211;SDS011;48849;48.758;9.158;2023-06-22T02:46:26;11.07;;;8.77;;
2211;SDS011;48849;48.758;9.158;2023-06-22T02:48:55;12.40;;;8.07;;
2211;SDS011;48849;48.758;9.158;2023-06-22T02:51:24;8.80;;;8.00;;
2211;SDS011;48849;48.758;9.158;2023-06-22T02:53:57;10.27;;;9.17;;
2211;SDS011;48849;48.758;9.158;2023-06-22T02:56:29;9.10;;;8.20;;
2211;SDS011;48849;48.758;9.158;2023-06-22T02:59:01;10.00;;;9.10;;
2211;SDS011;48849;48.758;9.158;2023-06-22T03:01:39;9.63;;;8.63;;
2211;SDS011;48849;48.758;9.158;2023-06-22T03:04:10;9.30;;;8.40;;
2211;SDS011;48849;48.758;9.158;2023-06-22T03:06:45;9.33;;;8.43;;
2211;SDS011;48849;48.758;9.158;2023-06-22T03:09:16;9.37;;;8.50;;
2211;SDS011;48849;48.758;9.158;2023-06-22T03:11:50;10.40;;;9.50;;
2211;SDS011;48849;48.758;9.158;2023-06-22T03:14:27;9.40;;;8.50;;
2211;SDS011;48849;48.758;9.158;2023-06-22T03:16:59;9.47;;;8.57;;
2211;SDS011;48849;48.758;9.158;2023-06-22T03:19:37;10.20;;;9.17;;
2211;SDS011;48849;48.758;9.158;2023-06-22T03:22:08;10.07;;;9.07;;
2211;SDS011;48849;48.758;9.158;2023-06-22T03:24:40;10.07;;;9.07;;
2211;SDS011;48849;48.758;9.158;2023-06-22T03:27:12;10.87;;;9.87;;
2211;SDS011;48849;48.758;9.158;2023-06-22T03:29:43;10.70;;;9.70;;
2211;SDS011;48849;48.758;9.158;2023-06-22T03:32:11;10.60;;;9.60;;
2211;SDS011;48849;48.758;9.158;2023-06-22T03:34:59;11.03;;;8.80;;
2211;SDS011;48849;48.758;9.158;2023-06-22T03:37:43;9.03;;;8.13;;
2211;SDS011;48849;48.758;9.158;2023-06-22T03:40:24;9.80;;;8.80;;
2211;SDS011;48849;48.758;9.158;2023-06-22T03:43:00;10.93;;;9.30;;
2211;SDS011;48849;48.758;9.158;2023-06-22T03:45:35;10.63;;;9.53;;
2211;SDS011;48849;48.758;9.158;2023-06-22T03:48:15;11.47;;;9.07;;
2211;SDS011;48849;48.758;9.158;2023-06-22T03:50:48;10.33;;;9.20;;
2211;SDS011;48849;48.758;9.158;2023-06-22T03:53:23;10.67;;;9.60;;
2211;SDS011;48849;48.758;9.158;2023-06-22T03:56:09;10.30;;;8.27;;
2211;SDS011;48849;48.758;9.158;2023-06-22T03:58:45;10.87;;;9.77;;
2211;SDS011;48849;48.758;9.158;2023-06-22T04:01:18;10.07;;;9.07;;
2211;SDS011;48849;48.758;9.158;2023-06-22T04:03:55;11.37;;;9.70;;
2211;SDS011;48849;48.758;9.158;2023-06-22T04:06:25;10.80;;;9.70;;
2211;SDS011;48849;48.758;9.158;2023-06-22T04:08:57;10.90;;;8.80;;
2211;SDS011;48849;48.758;9.158;2023-06-22T04:11:24;14.30;;;10.40;;
2211;SDS011;48849;48.758;9.158;2023-06-22T04:13:51;12.90;;;9.60;;
2211;SDS011;48849;48.758;9.158;2023-06-22T04:16:18;10.73;;;9.73;;
2211;SDS011;48849;48.758;9.158;2023-06-22T04:18:45;10.77;;;9.67;;
2211;SDS011;48849;48.758;9.158;2023-06-22T04:21:13;10.10;;;9.07;;
2211;SDS011;48849;48.758;9.158;2023-06-22T04:23:39;10.77;;;9.67;;
2211;SDS011;48849;48.758;9.158;2023-06-22T04:26:07;12.30;;;10.33;;
2211;SDS011;48849;48.758;9.158;2023-06-22T04:28:34;10.27;;;9.37;;
2211;SDS011;48849;48.758;9.158;2023-06-22T04:31:01;9.87;;;9.00;;
2211;SDS011;48849;48.758;9.158;2023-06-22T04:33:28;11.23;;;8.83;;
2211;SDS011;48849;48.758;9.158;2023-06-22T04:35:55;10.37;;;9.03;;
2211;SDS011;48849;48.758;9.158;2023-06-22T04:38:22;11.90;;;9.83;;
2211;SDS011;48849;48.758;9.158;2023-06-22T04:40:50;10.17;;;9.17;;
2211;SDS011;48849;48.758;9.158;2023-06-22T04:43:19;10.30;;;9.40;;
2211;SDS011;48849;48.758;9.158;2023-06-22T04:45:46;10.00;;;9.07;;
2211;SDS011;48849;48.758;9.158;2023-06-22T04:48:17;10.00;;;9.10;;
2211;SDS011;48849;48.758;9.158;2023-06-22T04:50:44;10.43;;;9.43;;
2211;SDS011;48849;48.758;9.158;2023-06-22T04:53:11;10.57;;;9.37;;
2211;SDS011;48849;48.758;9.158;2023-06-22T04:55:37;9.83;;;8.93;;
2211;SDS011;48849;48.758;9.158;2023-06-22T04:58:06;11.23;;;10.13;;
2211;SDS011;48849;48.758;9.158;2023-06-22T05:00:35;11.30;;;10.07;;
2211;SDS011;48849;48.758;9.158;2023-06-22T05:03:02;10.93;;;9.83;;
2211;SDS011;48849;48.758;9.158;2023-06-22T05:05:28;12.87;;;10.23;;
2211;SDS011;48849;48.758;9.158;2023-06-22T05:07:56;11.57;;;10.47;;
2211;SDS011;48849;48.758;9.158;2023-06-22T05:10:25;11.90;;;10.80;;
2211;SDS011;48849;48.758;9.158;2023-06-22T05:12:52;11.60;;;10.10;;
2211;SDS011;48849;48.758;9.158;2023-06-22T05:15:18;11.30;;;10.10;;
2211;SDS011;48849;48.758;9.158;2023-06-22T05:17:48;10.60;;;9.50;;
2211;SDS011;48849;48.758;9.158;2023-06-22T05:20:15;11.17;;;10.17;;
2211;SDS011;48849;48.758;9.158;2023-06-22T05:22:43;18.00;;;10.60;;
2211;SDS011;48849;48.758;9.158;2023-06-22T05:25:10;12.90;;;10.77;;
2211;SDS011;48849;48.758;9.158;2023-06-22T05:27:37;11.57;;;10.50;;
2211;SDS011;48849;48.758;9.158;2023-06-22T05:30:05;11.13;;;9.67;;
2211;SDS011;48849;48.758;9.158;2023-06-22T05:32:33;12.07;;;10.00;;
2211;SDS011;48849;48.758;9.158;2023-06-22T05:35:01;9.50;;;8.70;;
2211;SDS011;48849;48.758;9.158;2023-06-22T05:37:28;11.23;;;10.13;;
2211;SDS011;48849;48.758;9.158;2023-06-22T05:39:55;12.23;;;10.03;;
2211;SDS011;48849;48.758;9.158;2023-06-22T05:42:23;12.70;;;9.87;;
2211;SDS011;48849;48.758;9.158;2023-06-22T05:44:51;11.50;;;9.67;;
2211;SDS011;48849;48.758;9.158;2023-06-22T05:47:18;10.90;;;9.30;;
2211;SDS011;48849;48.758;9.158;2023-06-22T05:49:44;10.43;;;9.53;;
2211;SDS011;48849;48.758;9.158;2023-06-22T05:52:12;12.50;;;11.17;;
2211;SDS011;48849;48.758;9.158;2023-06-22T05:54:39;9.73;;;8.73;;
2211;SDS011;48849;48.758;9.158;2023-06-22T05:57:06;11.97;;;8.90;;
2211;SDS011;48849;48.758;9.158;2023-06-22T05:59:33;11.80;;;9.47;;
2211;SDS011;48849;48.758;9.158;2023-06-22T06:02:00;13.67;;;9.40;;
2211;SDS011;48849;48.758;9.158;2023-06-22T06:04:27;11.20;;;9.47;;
2211;SDS011;48849;48.758;9.158;2023-06-22T06:06:54;11.43;;;9.93;;
2211;SDS011;48849;48.758;9.158;2023-06-22T06:09:23;10.00;;;9.00;;
2211;SDS011;48849;48.758;9.158;2023-06-22T06:11:50;11.00;;;8.53;;
2211;SDS011;48849;48.758;9.158;2023-06-22T06:14:16;10.23;;;9.23;;
2211;SDS011;48849;48.758;9.158;2023-06-22T06:16:43;10.93;;;9.83;;
2211;SDS011;48849;48.758;9.158;2023-06-22T06:19:10;10.73;;;9.20;;
2211;SDS011;48849;48.758;9.158;2023-06-22T06:21:37;12.03;;;9.60;;
2211;SDS011;48849;48.758;9.158;2023-06-22T06:24:04;10.38;;;8.70;;
2211;SDS011;48849;48.758;9.158;2023-06-22T06:26:32;9.63;;;8.63;;
2211;SDS011;48849;48.758;9.158;2023-06-22T06:29:00;11.80;;;9.07;;
2211;SDS011;48849;48.758;9.158;2023-06-22T06:31:28;10.23;;;8.40;;
2211;SDS011;48849;48.758;9.158;2023-06-22T06:33:55;12.13;;;8.90;;
2211;SDS011;48849;48.758;9.158;2023-06-22T06:36:22;10.33;;;8.50;;
2211;SDS011;48849;48.758;9.158;2023-06-22T06:38:49;11.50;;;8.43;;
2211;SDS011;48849;48.758;9.158;2023-06-22T06:41:16;11.73;;;8.17;;
2211;SDS011;48849;48.758;9.158;2023-06-22T06:43:44;9.83;;;7.93;;
2211;SDS011;48849;48.758;9.158;2023-06-22T06:46:11;10.77;;;8.17;;
2211;SDS011;48849;48.758;9.158;2023-06-22T06:48:38;8.53;;;7.70;;
2211;SDS011;48849;48.758;9.158;2023-06-22T06:51:05;10.60;;;8.53;;
2211;SDS011;48849;48.758;9.158;2023-06-22T06:53:34;13.10;;;9.00;;
2211;SDS011;48849;48.758;9.158;2023-06-22T06:56:02;9.33;;;8.53;;
2211;SDS011;48849;48.758;9.158;2023-06-22T06:58:30;9.13;;;8.33;;
2211;SDS011;48849;48.758;9.158;2023-06-22T07:00:59;8.53;;;7.63;;
2211;SDS011;48849;48.758;9.158;2023-06-22T07:03:25;11.60;;;8.40;;
2211;SDS011;48849;48.758;9.158;2023-06-22T07:05:52;9.63;;;8.60;;
2211;SDS011;48849;48.758;9.158;2023-06-22T07:08:19;8.17;;;7.47;;
2211;SDS011;48849;48.758;9.158;2023-06-22T07:10:46;8.73;;;7.93;;
2211;SDS011;48849;48.758;9.158;2023-06-22T07:13:13;8.43;;;7.70;;
2211;SDS011;48849;48.758;9.158;2023-06-22T07:15:40;9.97;;;8.43;;
2211;SDS011;48849;48.758;9.158;2023-06-22T07:18:08;11.63;;;7.60;;
2211;SDS011;48849;48.758;9.158;2023-06-22T07:20:35;9.53;;;7.10;;
2211;SDS011;48849;48.758;9.158;2023-06-22T07:23:02;7.70;;;6.97;;
2211;SDS011;48849;48.758;9.158;2023-06-22T07:25:29;7.80;;;6.77;;
2211;SDS011;48849;48.758;9.158;2023-06-22T07:27:57;9.53;;;7.97;;
2211;SDS011;48849;48.758;9.158;2023-06-22T07:30:26;8.70;;;7.77;;
2211;SDS011;48849;48.758;9.158;2023-06-22T07:32:53;9.83;;;7.70;;
2211;SDS011;48849;48.758;9.158;2023-06-22T07:35:21;8.47;;;7.67;;
2211;SDS011;48849;48.758;9.158;2023-06-22T07:37:49;7.90;;;6.50;;
2211;SDS011;48849;48.758;9.158;2023-06-22T07:40:17;7.63;;;6.87;;
2211;SDS011;48849;48.758;9.158;2023-06-22T07:42:44;11.73;;;7.23;;
2211;SDS011;48849;48.758;9.158;2023-06-22T07:45:13;7.77;;;6.90;;
2211;SDS011;48849;48.758;9.158;2023-06-22T07:47:40;8.10;;;7.27;;
2211;SDS011;48849;48.758;9.158;2023-06-22T07:50:07;7.90;;;7.10;;
2211;SDS011;48849;48.758;9.158;2023-06-22T07:52:36;8.80;;;7.90;;
2211;SDS011;48849;48.758;9.158;2023-06-22T07:55:03;8.37;;;7.27;;
2211;SDS011;48849;48.758;9.158;2023-06-22T07:57:30;7.77;;;6.93;;
2211;SDS011;48849;48.758;9.158;2023-06-22T08:00:02;7.60;;;6.73;;
2211;SDS011;48849;48.758;9.158;2023-06-22T08:02:36;10.10;;;7.00;;
2211;SDS011;48849;48.758;9.158;2023-06-22T08:05:03;7.67;;;6.57;;
2211;SDS011;48849;48.758;9.158;2023-06-22T08:07:32;7.83;;;7.03;;
2211;SDS011;48849;48.758;9.158;2023-06-22T08:10:00;8.60;;;6.60;;
2211;SDS011;48849;48.758;9.158;2023-06-22T08:12:27;7.53;;;6.77;;
2211;SDS011;48849;48.758;9.158;2023-06-22T08:14:54;7.87;;;7.10;;
2211;SDS011;48849;48.758;9.158;2023-06-22T08:17:21;9.90;;;7.10;;
2211;SDS011;48849;48.758;9.158;2023-06-22T08:19:48;8.50;;;6.80;;
2211;SDS011;48849;48.758;9.158;2023-06-22T08:22:15;9.40;;;7.17;;
2211;SDS011;48849;48.758;9.158;2023-06-22T08:24:43;10.73;;;6.67;;
2211;SDS011;48849;48.758;9.158;2023-06-22T08:27:12;9.33;;;6.73;;
2211;SDS011;48849;48.758;9.158;2023-06-22T08:29:39;7.93;;;6.33;;
2211;SDS011;48849;48.758;9.158;2023-06-22T08:32:07;8.10;;;6.30;;
2211;SDS011;48849;48.758;9.158;2023-06-22T08:34:34;7.43;;;6.00;;
2211;SDS011;48849;48.758;9.158;2023-06-22T08:37:02;10.57;;;7.00;;
2211;SDS011;48849;48.758;9.158;2023-06-22T08:39:31;7.90;;;5.10;;
2211;SDS011;48849;48.758;9.158;2023-06-22T08:41:58;7.30;;;5.97;;
2211;SDS011;48849;48.758;9.158;2023-06-22T08:44:27;7.33;;;6.40;;
2211;SDS011;48849;48.758;9.158;2023-06-22T08:46:54;11.47;;;6.80;;
2211;SDS011;48849;48.758;9.158;2023-06-22T08:49:21;8.57;;;7.40;;
2211;SDS011;48849;48.758;9.158;2023-06-22T08:51:48;6.83;;;5.63;;
2211;SDS011;48849;48.758;9.158;2023-06-22T08:54:18;10.33;;;7.00;;
2211;SDS011;48849;48.758;9.158;2023-06-22T08:56:45;8.43;;;5.93;;
2211;SDS011;48849;48.758;9.158;2023-06-22T08:59:12;7.47;;;6.77;;
2211;SDS011;48849;48.758;9.158;2023-06-22T09:01:40;8.77;;;6.77;;
2211;SDS011;48849;48.758;9.158;2023-06-22T09:04:13;10.63;;;6.70;;
2211;SDS011;48849;48.758;9.158;2023-06-22T09:06:40;11.63;;;7.20;;
2211;SDS011;48849;48.758;9.158;2023-06-22T09:09:11;12.27;;;7.00;;
2211;SDS011;48849;48.758;9.158;2023-06-22T09:11:38;10.20;;;6.63;;
2211;SDS011;48849;48.758;9.158;2023-06-22T09:14:05;8.60;;;5.97;;
2211;SDS011;48849;48.758;9.158;2023-06-22T09:16:32;10.77;;;7.03;;
2211;SDS011;48849;48.758;9.158;2023-06-22T09:19:01;8.77;;;6.60;;
2211;SDS011;48849;48.758;9.158;2023-06-22T09:21:30;22.70;;;7.00;;
2211;SDS011;48849;48.758;9.158;2023-06-22T09:24:00;10.90;;;6.37;;
2211;SDS011;48849;48.758;9.158;2023-06-22T09:26:28;13.63;;;7.13;;
2211;SDS011;48849;48.758;9.158;2023-06-22T09:28:55;8.10;;;6.07;;
2211;SDS011;48849;48.758;9.158;2023-06-22T09:31:23;11.13;;;6.80;;
2211;SDS011;48849;48.758;9.158;2023-06-22T09:33:52;8.33;;;6.93;;
2211;SDS011;48849;48.758;9.158;2023-06-22T09:36:21;10.10;;;7.03;;
2211;SDS011;48849;48.758;9.158;2023-06-22T09:38:48;7.63;;;6.27;;
2211;SDS011;48849;48.758;9.158;2023-06-22T09:41:20;7.60;;;5.20;;
2211;SDS011;48849;48.758;9.158;2023-06-22T09:43:47;7.17;;;5.90;;
2211;SDS011;48849;48.758;9.158;2023-06-22T09:46:14;7.40;;;5.90;;
2211;SDS011;48849;48.758;9.158;2023-06-22T09:48:41;8.60;;;6.83;;
2211;SDS011;48849;48.758;9.158;2023-06-22T09:51:08;6.80;;;5.53;;
2211;SDS011;48849;48.758;9.158;2023-06-22T09:53:37;7.10;;;5.30;;
2211;SDS011;48849;48.758;9.158;2023-06-22T09:56:04;8.10;;;5.73;;
2211;SDS011;48849;48.758;9.158;2023-06-22T09:58:31;8.10;;;6.43;;
2211;SDS011;48849;48.758;9.158;2023-06-22T10:00:58;13.00;;;7.50;;
2211;SDS011;48849;48.758;9.158;2023-06-22T10:03:24;11.80;;;7.17;;
2211;SDS011;48849;48.758;9.158;2023-06-22T10:05:51;10.77;;;6.93;;
2211;SDS011;48849;48.758;9.158;2023-06-22T10:08:18;7.37;;;5.47;;
2211;SDS011;48849;48.758;9.158;2023-06-22T10:10:46;12.73;;;7.50;;
2211;SDS011;48849;48.758;9.158;2023-06-22T10:13:13;10.63;;;7.40;;
2211;SDS011;48849;48.758;9.158;2023-06-22T10:15:41;8.10;;;6.77;;
2211;SDS011;48849;48.758;9.158;2023-06-22T10:18:10;12.63;;;6.20;;
2211;SDS011;48849;48.758;9.158;2023-06-22T10:20:37;8.33;;;6.40;;
2211;SDS011;48849;48.758;9.158;2023-06-22T10:23:04;9.33;;;5.83;;
2211;SDS011;48849;48.758;9.158;2023-06-22T10:25:31;9.40;;;6.83;;
2211;SDS011;48849;48.758;9.158;2023-06-22T10:27:59;11.07;;;6.80;;
2211;SDS011;48849;48.758;9.158;2023-06-22T10:30:26;7.17;;;6.47;;
2211;SDS011;48849;48.758;9.158;2023-06-22T10:32:54;8.03;;;6.70;;
2211;SDS011;48849;48.758;9.158;2023-06-22T10:35:20;9.17;;;7.80;;
2211;SDS011;48849;48.758;9.158;2023-06-22T10:37:48;7.57;;;6.50;;
2211;SDS011;48849;48.758;9.158;2023-06-22T10:43:11;10.60;;;7.00;;
2211;SDS011;48849;48.758;9.158;2023-06-22T10:45:38;8.83;;;6.73;;
2211;SDS011;48849;48.758;9.158;2023-06-22T10:48:05;9.20;;;7.40;;
2211;SDS011;48849;48.758;9.158;2023-06-22T10:50:32;8.40;;;6.43;;
2211;SDS011;48849;48.758;9.158;2023-06-22T10:52:59;11.17;;;6.67;;
2211;SDS011;48849;48.758;9.158;2023-06-22T10:55:26;8.23;;;6.17;;
2211;SDS011;48849;48.758;9.158;2023-06-22T10:57:53;16.00;;;8.73;;
2211;SDS011;48849;48.758;9.158;2023-06-22T11:00:29;10.23;;;6.87;;
2211;SDS011;48849;48.758;9.158;2023-06-22T11:02:56;11.37;;;6.87;;
2211;SDS011;48849;48.758;9.158;2023-06-22T11:05:36;8.60;;;6.77;;
2211;SDS011;48849;48.758;9.158;2023-06-22T11:08:04;10.07;;;6.93;;
2211;SDS011;48849;48.758;9.158;2023-06-22T11:10:31;9.23;;;7.17;;
2211;SDS011;48849;48.758;9.158;2023-06-22T11:12:58;10.97;;;7.33;;
2211;SDS011;48849;48.758;9.158;2023-06-22T11:15:25;9.00;;;6.97;;
2211;SDS011;48849;48.758;9.158;2023-06-22T11:17:53;10.73;;;7.03;;
2211;SDS011;48849;48.758;9.158;2023-06-22T11:20:20;10.13;;;7.37;;
2211;SDS011;48849;48.758;9.158;2023-06-22T11:22:47;9.37;;;6.53;;
2211;SDS011;48849;48.758;9.158;2023-06-22T11:25:14;8.13;;;6.00;;
2211;SDS011;48849;48.758;9.158;2023-06-22T11:27:41;8.77;;;7.10;;
2211;SDS011;48849;48.758;9.158;2023-06-22T11:30:08;8.53;;;6.63;;
2211;SDS011;48849;48.758;9.158;2023-06-22T11:32:35;13.33;;;7.17;;
2211;SDS011;48849;48.758;9.158;2023-06-22T11:35:04;14.80;;;7.53;;
2211;SDS011;48849;48.758;9.158;2023-06-22T11:37:32;9.90;;;7.27;;
2211;SDS011;48849;48.758;9.158;2023-06-22T11:39:59;7.00;;;6.00;;
2211;SDS011;48849;48.758;9.158;2023-06-22T11:42:42;8.43;;;6.57;;
2211;SDS011;48849;48.758;9.158;2023-06-22T11:45:09;10.07;;;6.83;;
2211;SDS011;48849;48.758;9.158;2023-06-22T11:47:36;13.70;;;8.20;;
2211;SDS011;48849;48.758;9.158;2023-06-22T11:50:06;16.23;;;8.00;;
2211;SDS011;48849;48.758;9.158;2023-06-22T11:55:19;13.50;;;8.57;;
2211;SDS011;48849;48.758;9.158;2023-06-22T11:57:53;13.30;;;8.37;;
2211;SDS011;48849;48.758;9.158;2023-06-22T12:00:40;11.23;;;7.97;;
2211;SDS011;48849;48.758;9.158;2023-06-22T12:03:07;11.43;;;7.80;;
2211;SDS011;48849;48.758;9.158;2023-06-22T12:05:35;10.67;;;7.77;;
2211;SDS011;48849;48.758;9.158;2023-06-22T12:08:03;12.13;;;7.63;;
2211;SDS011;48849;48.758;9.158;2023-06-22T12:10:33;11.00;;;8.70;;
2211;SDS011;48849;48.758;9.158;2023-06-22T12:13:00;10.87;;;8.13;;
2211;SDS011;48849;48.758;9.158;2023-06-22T12:15:27;11.87;;;8.00;;
2211;SDS011;48849;48.758;9.158;2023-06-22T12:17:54;14.47;;;12.33;;
2211;SDS011;48849;48.758;9.158;2023-06-22T12:23:10;17.17;;;15.30;;
2211;SDS011;48849;48.758;9.158;2023-06-22T12:25:37;15.60;;;12.27;;
2211;SDS011;48849;48.758;9.158;2023-06-22T12:28:04;16.20;;;11.83;;
2211;SDS011;48849;48.758;9.158;2023-06-22T12:30:32;14.03;;;11.90;;
2211;SDS011;48849;48.758;9.158;2023-06-22T12:33:08;16.13;;;13.03;;
2211;SDS011;48849;48.758;9.158;2023-06-22T12:35:39;14.80;;;12.27;;
2211;SDS011;48849;48.758;9.158;2023-06-22T12:38:07;15.17;;;12.63;;
2211;SDS011;48849;48.758;9.158;2023-06-22T12:40:37;18.07;;;15.60;;
2211;SDS011;48849;48.758;9.158;2023-06-22T12:43:04;23.37;;;17.37;;
2211;SDS011;48849;48.758;9.158;2023-06-22T12:45:32;16.67;;;14.87;;
2211;SDS011;48849;48.758;9.158;2023-06-22T12:51:10;21.67;;;16.63;;
2211;SDS011;48849;48.758;9.158;2023-06-22T12:53:38;20.13;;;17.97;;
2211;SDS011;48849;48.758;9.158;2023-06-22T12:56:05;18.60;;;16.90;;
2211;SDS011;48849;48.758;9.158;2023-06-22T12:58:32;19.87;;;17.80;;
2211;SDS011;48849;48.758;9.158;2023-06-22T13:00:59;17.90;;;15.10;;
2211;SDS011;48849;48.758;9.158;2023-06-22T13:03:26;16.23;;;14.53;;
2211;SDS011;48849;48.758;9.158;2023-06-22T13:05:53;18.13;;;12.40;;
2211;SDS011;48849;48.758;9.158;2023-06-22T13:08:21;17.63;;;13.07;;
2211;SDS011;48849;48.758;9.158;2023-06-22T13:11:01;17.93;;;12.30;;
2211;SDS011;48849;48.758;9.158;2023-06-22T13:13:28;14.63;;;13.13;;
2211;SDS011;48849;48.758;9.158;2023-06-22T13:15:55;14.13;;;12.60;;
2211;SDS011;48849;48.758;9.158;2023-06-22T13:18:24;17.00;;;11.47;;
2211;SDS011;48849;48.758;9.158;2023-06-22T13:20:50;15.17;;;11.40;;
2211;SDS011;48849;48.758;9.158;2023-06-22T13:23:37;18.80;;;11.20;;
2211;SDS011;48849;48.758;9.158;2023-06-22T13:26:07;16.10;;;13.77;;
2211;SDS011;48849;48.758;9.158;2023-06-22T13:28:34;18.00;;;14.70;;
2211;SDS011;48849;48.758;9.158;2023-06-22T13:31:01;24.13;;;18.93;;
2211;SDS011;48849;48.758;9.158;2023-06-22T13:33:28;20.83;;;16.73;;
2211;SDS011;48849;48.758;9.158;2023-06-22T13:35:55;18.23;;;16.10;;
2211;SDS011;48849;48.758;9.158;2023-06-22T13:38:22;17.93;;;16.00;;
2211;SDS011;48849;48.758;9.158;2023-06-22T13:40:49;17.00;;;15.33;;
2211;SDS011;48849;48.758;9.158;2023-06-22T13:43:17;15.77;;;13.93;;
2211;SDS011;48849;48.758;9.158;2023-06-22T13:45:44;19.70;;;15.00;;
2211;SDS011;48849;48.758;9.158;2023-06-22T13:48:11;15.90;;;13.37;;
2211;SDS011;48849;48.758;9.158;2023-06-22T13:50:38;17.47;;;13.50;;
2211;SDS011;48849;48.758;9.158;2023-06-22T13:53:05;14.10;;;12.60;;
2211;SDS011;48849;48.758;9.158;2023-06-22T13:55:32;14.47;;;13.07;;
2211;SDS011;48849;48.758;9.158;2023-06-22T13:57:59;14.73;;;12.53;;
2211;SDS011;48849;48.758;9.158;2023-06-22T14:00:27;14.00;;;12.60;;
2211;SDS011;48849;48.758;9.158;2023-06-22T14:02:54;19.03;;;16.27;;
2211;SDS011;48849;48.758;9.158;2023-06-22T14:05:21;19.33;;;15.57;;
2211;SDS011;48849;48.758;9.158;2023-06-22T14:07:48;25.07;;;22.13;;
2211;SDS011;48849;48.758;9.158;2023-06-22T14:10:15;20.50;;;17.87;;
2211;SDS011;48849;48.758;9.158;2023-06-22T14:12:42;18.13;;;16.23;;
2211;SDS011;48849;48.758;9.158;2023-06-22T14:15:10;20.83;;;18.60;;
2211;SDS011;48849;48.758;9.158;2023-06-22T14:17:38;20.63;;;18.50;;
2211;SDS011;48849;48.758;9.158;2023-06-22T14:20:07;21.20;;;18.50;;
2211;SDS011;48849;48.758;9.158;2023-06-22T14:22:34;19.53;;;17.50;;
2211;SDS011;48849;48.758;9.158;2023-06-22T14:25:01;19.43;;;10.67;;
2211;SDS011;48849;48.758;9.158;2023-06-22T14:27:50;16.60;;;10.43;;
2211;SDS011;48849;48.758;9.158;2023-06-22T14:30:17;11.70;;;8.30;;
2211;SDS011;48849;48.758;9.158;2023-06-22T14:32:59;11.70;;;7.80;;
2211;SDS011;48849;48.758;9.158;2023-06-22T14:35:26;11.33;;;7.27;;
2211;SDS011;48849;48.758;9.158;2023-06-22T14:41:11;13.90;;;7.90;;
2211;SDS011;48849;48.758;9.158;2023-06-22T14:43:43;13.37;;;6.50;;
2211;SDS011;48849;48.758;9.158;2023-06-22T14:46:24;12.63;;;7.17;;
2211;SDS011;48849;48.758;9.158;2023-06-22T14:48:53;11.50;;;5.83;;
2211;SDS011;48849;48.758;9.158;2023-06-22T14:51:20;10.03;;;6.10;;
2211;SDS011;48849;48.758;9.158;2023-06-22T14:53:47;10.90;;;5.97;;
2211;SDS011;48849;48.758;9.158;2023-06-22T14:56:13;10.73;;;5.47;;
2211;SDS011;48849;48.758;9.158;2023-06-22T14:58:40;12.93;;;5.10;;
2211;SDS011;48849;48.758;9.158;2023-06-22T15:01:10;13.90;;;4.57;;
2211;SDS011;48849;48.758;9.158;2023-06-22T15:03:37;10.30;;;4.80;;
2211;SDS011;48849;48.758;9.158;2023-06-22T15:15:59;13.73;;;4.70;;
2211;SDS011;48849;48.758;9.158;2023-06-22T15:18:26;9.50;;;4.87;;
2211;SDS011;48849;48.758;9.158;2023-06-22T15:20:53;10.87;;;6.10;;
2211;SDS011;48849;48.758;9.158;2023-06-22T15:23:20;12.77;;;4.70;;
2211;SDS011;48849;48.758;9.158;2023-06-22T15:25:47;10.33;;;5.60;;
2211;SDS011;48849;48.758;9.158;2023-06-22T15:28:14;15.10;;;4.33;;
2211;SDS011;48849;48.758;9.158;2023-06-22T15:30:41;13.37;;;4.43;;
2211;SDS011;48849;48.758;9.158;2023-06-22T15:33:10;11.37;;;4.57;;